Bookmark and Share
Track history (hours):
 

Nevskiy-31

Last reported at 2013-Nov-28 18:28 UTC. Time now 2014-Apr-21 03:12 UTC.
Position N 59°57' E 030°17'.
Warning: this ship's position is months out of date.

Length 111 m; draft 2.4 m.

Type: Cargo ship. MMSI: 273440320.

NotesDate/timePositionNaut miles runAvg speedWind from/ knotsBaromVisibWave heightAir tempDewpointWater temp
2013-Nov-28 18:28N 59°57' E 030°17'0 0.1
2013-Nov-28 17:31N 59°57' E 030°17'0 0.0
2013-Nov-28 16:33N 59°57' E 030°17'0 0.0
2013-Nov-28 15:33N 59°57' E 030°17'0 0.0
2013-Nov-28 14:33N 59°57' E 030°17'1 0.9
2013-Nov-28 13:33N 59°57' E 030°15'0 0.0
2013-Nov-28 12:33N 59°57' E 030°15'0 0.0
2013-Nov-28 11:33N 59°57' E 030°15'0 0.0
2013-Nov-28 10:33N 59°57' E 030°15'0 0.0
2013-Nov-28 09:32N 59°57' E 030°15'0 0.3
2013-Nov-28 08:33N 59°58' E 030°15'4 0.1
2013-Nov-26 18:08N 59°57' E 030°07'2 2.3
2013-Nov-26 17:06N 59°57' E 030°12'0 0.0
2013-Nov-26 16:26N 59°57' E 030°12'0 0.0
2013-Nov-26 15:33N 59°57' E 030°12'2 0.1
2013-Nov-25 16:17N 59°56' E 030°09'3 4.2
2013-Nov-25 15:34N 59°55' E 030°14'1 0.8
2013-Nov-25 14:33N 59°55' E 030°13'0 0.0
2013-Nov-25 13:33N 59°55' E 030°13'0 0.0
2013-Nov-25 12:33N 59°55' E 030°13'0 0.0
2013-Nov-25 11:33N 59°55' E 030°13'0 0.0
2013-Nov-25 10:33N 59°55' E 030°13'0 0.0
2013-Nov-25 09:33N 59°55' E 030°13'0 0.0
2013-Nov-25 08:33N 59°55' E 030°13'0 0.0
2013-Nov-25 07:33N 59°55' E 030°13'3 0.1
2013-Nov-24 12:17N 59°56' E 030°08'3 4.6
2013-Nov-24 11:32N 59°55' E 030°14'1 0.8
2013-Nov-24 10:33N 59°55' E 030°13'0 0.0
2013-Nov-24 09:34N 59°55' E 030°13'0 0.0
2013-Nov-24 08:34N 59°55' E 030°13'0 0.0
2013-Nov-24 07:33N 59°55' E 030°13'3 0.1
2013-Nov-23 04:29N 59°57' E 030°18'4 4.7
2013-Nov-23 03:33N 59°57' E 030°09'2 0.8
2013-Nov-23 01:29N 59°57' E 030°12'0 0.0
2013-Nov-23 00:33N 59°57' E 030°12'0 0.0
2013-Nov-22 23:32N 59°57' E 030°12'0 0.0
2013-Nov-22 22:32N 59°57' E 030°12'0 0.0
2013-Nov-22 21:33N 59°57' E 030°12'0 0.0
2013-Nov-22 20:33N 59°57' E 030°12'2 0.1
2013-Nov-21 09:33N 59°57' E 030°09'5 0.5
2013-Nov-21 00:28N 59°57' E 030°18'2 1.7
2013-Nov-20 23:33N 59°57' E 030°15'0 0.0
2013-Nov-20 22:33N 59°57' E 030°15'2 2.2
2013-Nov-20 21:27N 59°58' E 030°11'0 0.0
2013-Nov-20 07:30N 59°57' E 030°11'1 0.4
2013-Nov-20 06:04N 59°57' E 030°12'0 0.0
2013-Nov-20 05:33N 59°57' E 030°12'0 0.0
2013-Nov-20 04:33N 59°57' E 030°12'  

Dump ship's entire track history

sailing weather and tide predictions

Nevskiy-31 — UCGM — position and weather